Murphys Corner, Arkansas
Current Conditions -  °F | °C
As of 6:23 PM on Sunday 25 Jan 2015 (Local Time) from KM19 Reporting Station
Overcast Overcast  
Wind Chill: 37°   Ceiling: 3000
Heat Index: 45°   Visibility: 10mi
Dew Point: 36°   Wind: 17mph
Humidity: 71%   Direction: 300°WNW
Pressure: 29.89"   Gusts: NA
Location:  35.5678°N, 91.2073°W
Report Text: KM19 260023Z AUTO 30015KT 10SM BKN030 OVC037 07/02 A2989 RMK AO2 BKN V OVC PK WND 30026/0007
Loading
Personal Weather Stations






























Interactive Weather Map New forecast layout! Learn more

10-Day Weather Forecast

Advertisements
Track Severe Weather on mobile